sensor_id;sensor_type;location;lat;lon;timestamp;P1;durP1;ratioP1;P2;durP2;ratioP2
62179;SDS011;48172;53.374;10.722;2022-08-04T00:00:26;1.42;;;1.10;;
62179;SDS011;48172;53.374;10.722;2022-08-04T00:03:13;1.25;;;1.00;;
62179;SDS011;48172;53.374;10.722;2022-08-04T00:11:02;1.50;;;1.13;;
62179;SDS011;48172;53.374;10.722;2022-08-04T00:13:30;1.88;;;1.02;;
62179;SDS011;48172;53.374;10.722;2022-08-04T00:15:57;1.73;;;1.00;;
62179;SDS011;48172;53.374;10.722;2022-08-04T00:18:29;1.27;;;1.00;;
62179;SDS011;48172;53.374;10.722;2022-08-04T00:21:04;1.10;;;1.00;;
62179;SDS011;48172;53.374;10.722;2022-08-04T00:23:34;1.40;;;1.10;;
62179;SDS011;48172;53.374;10.722;2022-08-04T00:26:23;1.00;;;0.90;;
62179;SDS011;48172;53.374;10.722;2022-08-04T00:28:51;1.25;;;0.95;;
62179;SDS011;48172;53.374;10.722;2022-08-04T00:31:18;1.13;;;1.02;;
62179;SDS011;48172;53.374;10.722;2022-08-04T00:34:05;1.10;;;1.00;;
62179;SDS011;48172;53.374;10.722;2022-08-04T00:36:31;0.85;;;0.80;;
62179;SDS011;48172;53.374;10.722;2022-08-04T00:38:59;1.67;;;1.10;;
62179;SDS011;48172;53.374;10.722;2022-08-04T00:52:35;1.00;;;0.90;;
62179;SDS011;48172;53.374;10.722;2022-08-04T00:55:14;1.48;;;0.90;;
62179;SDS011;48172;53.374;10.722;2022-08-04T01:01:06;0.85;;;0.80;;
62179;SDS011;48172;53.374;10.722;2022-08-04T01:12:07;1.50;;;1.00;;
62179;SDS011;48172;53.374;10.722;2022-08-04T01:14:43;1.10;;;1.00;;
62179;SDS011;48172;53.374;10.722;2022-08-04T01:20:05;0.90;;;0.90;;
62179;SDS011;48172;53.374;10.722;2022-08-04T01:31:11;1.30;;;1.20;;
62179;SDS011;48172;53.374;10.722;2022-08-04T01:33:56;1.50;;;0.95;;
62179;SDS011;48172;53.374;10.722;2022-08-04T01:36:32;1.25;;;1.15;;
62179;SDS011;48172;53.374;10.722;2022-08-04T01:39:00;1.33;;;1.08;;
62179;SDS011;48172;53.374;10.722;2022-08-04T01:41:48;1.80;;;1.20;;
62179;SDS011;48172;53.374;10.722;2022-08-04T01:44:23;1.67;;;1.10;;
62179;SDS011;48172;53.374;10.722;2022-08-04T01:46:53;1.35;;;1.00;;
62179;SDS011;48172;53.374;10.722;2022-08-04T01:49:20;1.02;;;0.90;;
62179;SDS011;48172;53.374;10.722;2022-08-04T01:51:50;1.15;;;1.02;;
62179;SDS011;48172;53.374;10.722;2022-08-04T01:54:17;0.80;;;0.80;;
62179;SDS011;48172;53.374;10.722;2022-08-04T01:56:45;1.10;;;1.00;;
62179;SDS011;48172;53.374;10.722;2022-08-04T01:59:16;1.55;;;1.30;;
62179;SDS011;48172;53.374;10.722;2022-08-04T02:01:44;1.42;;;1.08;;
62179;SDS011;48172;53.374;10.722;2022-08-04T02:04:14;1.10;;;1.00;;
62179;SDS011;48172;53.374;10.722;2022-08-04T02:07:06;1.88;;;0.98;;
62179;SDS011;48172;53.374;10.722;2022-08-04T02:12:30;0.80;;;0.80;;
62179;SDS011;48172;53.374;10.722;2022-08-04T02:15:03;1.43;;;0.93;;
62179;SDS011;48172;53.374;10.722;2022-08-04T02:20:32;1.50;;;1.08;;
62179;SDS011;48172;53.374;10.722;2022-08-04T02:23:07;1.23;;;0.90;;
62179;SDS011;48172;53.374;10.722;2022-08-04T02:25:39;1.10;;;1.00;;
62179;SDS011;48172;53.374;10.722;2022-08-04T02:33:40;2.45;;;1.00;;
62179;SDS011;48172;53.374;10.722;2022-08-04T02:36:09;1.20;;;0.90;;
62179;SDS011;48172;53.374;10.722;2022-08-04T02:38:46;1.35;;;1.08;;
62179;SDS011;48172;53.374;10.722;2022-08-04T02:41:20;1.42;;;1.13;;
62179;SDS011;48172;53.374;10.722;2022-08-04T02:43:48;1.33;;;1.15;;
62179;SDS011;48172;53.374;10.722;2022-08-04T02:46:19;1.92;;;0.95;;
62179;SDS011;48172;53.374;10.722;2022-08-04T02:48:47;1.83;;;1.10;;
62179;SDS011;48172;53.374;10.722;2022-08-04T02:51:16;1.73;;;0.90;;
62179;SDS011;48172;53.374;10.722;2022-08-04T02:53:45;2.35;;;1.27;;
62179;SDS011;48172;53.374;10.722;2022-08-04T02:56:14;2.13;;;1.08;;
62179;SDS011;48172;53.374;10.722;2022-08-04T02:58:45;1.42;;;1.10;;
62179;SDS011;48172;53.374;10.722;2022-08-04T03:01:13;1.48;;;1.02;;
62179;SDS011;48172;53.374;10.722;2022-08-04T03:09:27;1.92;;;1.15;;
62179;SDS011;48172;53.374;10.722;2022-08-04T03:31:26;1.45;;;1.10;;
62179;SDS011;48172;53.374;10.722;2022-08-04T03:46:40;1.45;;;1.30;;
62179;SDS011;48172;53.374;10.722;2022-08-04T03:55:03;1.15;;;1.02;;
62179;SDS011;48172;53.374;10.722;2022-08-04T04:00:19;1.10;;;0.90;;
62179;SDS011;48172;53.374;10.722;2022-08-04T04:51:38;1.65;;;1.20;;
62179;SDS011;48172;53.374;10.722;2022-08-04T04:54:12;1.33;;;1.00;;
62179;SDS011;48172;53.374;10.722;2022-08-04T04:57:02;1.30;;;1.20;;
62179;SDS011;48172;53.374;10.722;2022-08-04T04:59:31;1.63;;;1.10;;
62179;SDS011;48172;53.374;10.722;2022-08-04T05:08:07;1.40;;;1.30;;
62179;SDS011;48172;53.374;10.722;2022-08-04T05:11:18;1.48;;;1.00;;
62179;SDS011;48172;53.374;10.722;2022-08-04T05:14:03;1.85;;;1.08;;
62179;SDS011;48172;53.374;10.722;2022-08-04T05:16:56;1.23;;;1.13;;
62179;SDS011;48172;53.374;10.722;2022-08-04T05:23:01;1.27;;;0.90;;
62179;SDS011;48172;53.374;10.722;2022-08-04T05:25:37;1.67;;;1.10;;
62179;SDS011;48172;53.374;10.722;2022-08-04T05:28:32;1.15;;;0.90;;
62179;SDS011;48172;53.374;10.722;2022-08-04T05:31:08;1.30;;;1.20;;
62179;SDS011;48172;53.374;10.722;2022-08-04T05:33:38;1.48;;;1.00;;
62179;SDS011;48172;53.374;10.722;2022-08-04T05:36:13;1.23;;;1.00;;
62179;SDS011;48172;53.374;10.722;2022-08-04T05:39:02;1.20;;;1.10;;
62179;SDS011;48172;53.374;10.722;2022-08-04T05:41:32;1.10;;;1.00;;
62179;SDS011;48172;53.374;10.722;2022-08-04T05:44:16;1.35;;;1.10;;
62179;SDS011;48172;53.374;10.722;2022-08-04T05:46:44;1.35;;;1.00;;
62179;SDS011;48172;53.374;10.722;2022-08-04T05:49:20;0.98;;;0.93;;
62179;SDS011;48172;53.374;10.722;2022-08-04T05:51:48;1.60;;;1.17;;
62179;SDS011;48172;53.374;10.722;2022-08-04T05:54:16;1.25;;;1.10;;
62179;SDS011;48172;53.374;10.722;2022-08-04T05:56:43;1.35;;;1.05;;
62179;SDS011;48172;53.374;10.722;2022-08-04T05:59:11;2.08;;;1.10;;
62179;SDS011;48172;53.374;10.722;2022-08-04T06:01:38;1.63;;;1.17;;
62179;SDS011;48172;53.374;10.722;2022-08-04T06:04:22;1.20;;;1.10;;
62179;SDS011;48172;53.374;10.722;2022-08-04T06:06:53;1.20;;;1.10;;
62179;SDS011;48172;53.374;10.722;2022-08-04T06:09:19;1.30;;;0.90;;
62179;SDS011;48172;53.374;10.722;2022-08-04T06:11:46;1.35;;;1.00;;
62179;SDS011;48172;53.374;10.722;2022-08-04T06:16:58;1.35;;;0.98;;
62179;SDS011;48172;53.374;10.722;2022-08-04T06:19:28;2.72;;;1.25;;
62179;SDS011;48172;53.374;10.722;2022-08-04T06:22:16;2.10;;;1.20;;
62179;SDS011;48172;53.374;10.722;2022-08-04T06:24:44;2.13;;;1.50;;
62179;SDS011;48172;53.374;10.722;2022-08-04T06:27:14;2.03;;;1.40;;
62179;SDS011;48172;53.374;10.722;2022-08-04T06:29:41;1.88;;;1.33;;
62179;SDS011;48172;53.374;10.722;2022-08-04T06:32:17;2.97;;;1.35;;
62179;SDS011;48172;53.374;10.722;2022-08-04T06:35:03;2.35;;;1.50;;
62179;SDS011;48172;53.374;10.722;2022-08-04T06:37:31;3.55;;;1.50;;
62179;SDS011;48172;53.374;10.722;2022-08-04T06:40:08;1.85;;;1.40;;
62179;SDS011;48172;53.374;10.722;2022-08-04T06:42:57;4.75;;;1.52;;
62179;SDS011;48172;53.374;10.722;2022-08-04T06:45:25;2.10;;;1.20;;
62179;SDS011;48172;53.374;10.722;2022-08-04T06:47:52;1.33;;;1.23;;
62179;SDS011;48172;53.374;10.722;2022-08-04T06:50:20;2.42;;;1.70;;
62179;SDS011;48172;53.374;10.722;2022-08-04T06:53:07;1.65;;;1.25;;
62179;SDS011;48172;53.374;10.722;2022-08-04T06:55:34;4.25;;;1.35;;
62179;SDS011;48172;53.374;10.722;2022-08-04T06:58:02;2.13;;;1.45;;
62179;SDS011;48172;53.374;10.722;2022-08-04T07:00:30;2.67;;;1.30;;
62179;SDS011;48172;53.374;10.722;2022-08-04T07:02:57;4.60;;;1.30;;
62179;SDS011;48172;53.374;10.722;2022-08-04T07:05:24;1.75;;;1.20;;
62179;SDS011;48172;53.374;10.722;2022-08-04T07:07:51;1.55;;;1.30;;
62179;SDS011;48172;53.374;10.722;2022-08-04T07:10:24;3.13;;;1.20;;
62179;SDS011;48172;53.374;10.722;2022-08-04T07:12:54;2.63;;;1.40;;
62179;SDS011;48172;53.374;10.722;2022-08-04T07:15:24;2.17;;;1.30;;
62179;SDS011;48172;53.374;10.722;2022-08-04T07:17:51;4.47;;;1.30;;
62179;SDS011;48172;53.374;10.722;2022-08-04T07:20:19;5.53;;;1.73;;
62179;SDS011;48172;53.374;10.722;2022-08-04T07:23:01;3.47;;;1.30;;
62179;SDS011;48172;53.374;10.722;2022-08-04T07:25:34;3.22;;;1.40;;
62179;SDS011;48172;53.374;10.722;2022-08-04T07:28:22;1.45;;;1.27;;
62179;SDS011;48172;53.374;10.722;2022-08-04T07:30:51;2.38;;;1.50;;
62179;SDS011;48172;53.374;10.722;2022-08-04T07:33:19;2.30;;;1.30;;
62179;SDS011;48172;53.374;10.722;2022-08-04T07:35:51;2.63;;;1.13;;
62179;SDS011;48172;53.374;10.722;2022-08-04T07:38:37;2.60;;;1.42;;
62179;SDS011;48172;53.374;10.722;2022-08-04T07:41:19;1.73;;;1.23;;
62179;SDS011;48172;53.374;10.722;2022-08-04T07:44:04;2.70;;;1.15;;
62179;SDS011;48172;53.374;10.722;2022-08-04T07:46:32;1.95;;;1.40;;
62179;SDS011;48172;53.374;10.722;2022-08-04T07:48:59;2.92;;;1.30;;
62179;SDS011;48172;53.374;10.722;2022-08-04T07:51:27;4.45;;;1.30;;
62179;SDS011;48172;53.374;10.722;2022-08-04T07:53:56;1.70;;;1.20;;
62179;SDS011;48172;53.374;10.722;2022-08-04T07:56:24;1.90;;;1.40;;
62179;SDS011;48172;53.374;10.722;2022-08-04T07:58:52;2.08;;;1.27;;
62179;SDS011;48172;53.374;10.722;2022-08-04T08:01:19;1.70;;;1.30;;
62179;SDS011;48172;53.374;10.722;2022-08-04T08:03:46;1.40;;;1.00;;
62179;SDS011;48172;53.374;10.722;2022-08-04T08:06:13;2.45;;;1.23;;
62179;SDS011;48172;53.374;10.722;2022-08-04T08:08:58;2.47;;;1.23;;
62179;SDS011;48172;53.374;10.722;2022-08-04T08:11:37;1.50;;;1.30;;
62179;SDS011;48172;53.374;10.722;2022-08-04T08:14:24;2.60;;;1.20;;
62179;SDS011;48172;53.374;10.722;2022-08-04T08:16:51;1.67;;;1.17;;
62179;SDS011;48172;53.374;10.722;2022-08-04T08:19:17;1.42;;;1.10;;
62179;SDS011;48172;53.374;10.722;2022-08-04T08:21:45;2.47;;;1.20;;
62179;SDS011;48172;53.374;10.722;2022-08-04T08:24:25;1.45;;;1.00;;
62179;SDS011;48172;53.374;10.722;2022-08-04T08:26:53;1.50;;;1.13;;
62179;SDS011;48172;53.374;10.722;2022-08-04T08:29:21;1.38;;;1.00;;
62179;SDS011;48172;53.374;10.722;2022-08-04T08:31:48;2.47;;;1.25;;
62179;SDS011;48172;53.374;10.722;2022-08-04T08:34:25;2.42;;;1.48;;
62179;SDS011;48172;53.374;10.722;2022-08-04T08:36:58;2.10;;;1.20;;
62179;SDS011;48172;53.374;10.722;2022-08-04T08:39:42;1.80;;;1.25;;
62179;SDS011;48172;53.374;10.722;2022-08-04T08:53:22;2.13;;;1.15;;
62179;SDS011;48172;53.374;10.722;2022-08-04T09:01:11;1.10;;;1.00;;
62179;SDS011;48172;53.374;10.722;2022-08-04T09:06:55;1.95;;;1.27;;
62179;SDS011;48172;53.374;10.722;2022-08-04T09:15:06;1.38;;;1.13;;
62179;SDS011;48172;53.374;10.722;2022-08-04T09:17:50;1.17;;;1.08;;
62179;SDS011;48172;53.374;10.722;2022-08-04T09:22:58;1.48;;;0.90;;
62179;SDS011;48172;53.374;10.722;2022-08-04T09:25:46;1.42;;;1.13;;
62179;SDS011;48172;53.374;10.722;2022-08-04T09:28:21;1.63;;;0.90;;
62179;SDS011;48172;53.374;10.722;2022-08-04T09:31:10;1.50;;;1.00;;
62179;SDS011;48172;53.374;10.722;2022-08-04T09:39:25;1.38;;;1.23;;
62179;SDS011;48172;53.374;10.722;2022-08-04T09:47:37;1.20;;;1.05;;
62179;SDS011;48172;53.374;10.722;2022-08-04T09:56:13;2.55;;;1.13;;
62179;SDS011;48172;53.374;10.722;2022-08-04T09:59:17;1.00;;;0.90;;
62179;SDS011;48172;53.374;10.722;2022-08-04T10:01:50;1.13;;;0.90;;
62179;SDS011;48172;53.374;10.722;2022-08-04T10:04:26;1.13;;;1.02;;
62179;SDS011;48172;53.374;10.722;2022-08-04T10:07:14;1.90;;;1.10;;
62179;SDS011;48172;53.374;10.722;2022-08-04T10:10:18;1.75;;;1.20;;
62179;SDS011;48172;53.374;10.722;2022-08-04T10:15:26;1.10;;;1.00;;
62179;SDS011;48172;53.374;10.722;2022-08-04T10:23:22;1.20;;;1.10;;
62179;SDS011;48172;53.374;10.722;2022-08-04T10:26:27;1.30;;;1.10;;
62179;SDS011;48172;53.374;10.722;2022-08-04T10:29:03;2.60;;;1.00;;
62179;SDS011;48172;53.374;10.722;2022-08-04T10:31:34;1.88;;;1.10;;
62179;SDS011;48172;53.374;10.722;2022-08-04T10:34:21;1.80;;;1.20;;
62179;SDS011;48172;53.374;10.722;2022-08-04T10:36:58;2.08;;;1.20;;
62179;SDS011;48172;53.374;10.722;2022-08-04T10:39:39;1.00;;;1.00;;
62179;SDS011;48172;53.374;10.722;2022-08-04T10:42:32;1.53;;;1.00;;
62179;SDS011;48172;53.374;10.722;2022-08-04T10:47:50;1.30;;;1.20;;
62179;SDS011;48172;53.374;10.722;2022-08-04T10:50:26;1.30;;;0.88;;
62179;SDS011;48172;53.374;10.722;2022-08-04T10:52:56;14.23;;;4.13;;
62179;SDS011;48172;53.374;10.722;2022-08-04T10:55:35;8.32;;;3.63;;
62179;SDS011;48172;53.374;10.722;2022-08-04T10:58:29;9.90;;;3.60;;
62179;SDS011;48172;53.374;10.722;2022-08-04T11:01:22;10.75;;;3.50;;
62179;SDS011;48172;53.374;10.722;2022-08-04T11:04:16;9.80;;;4.00;;
62179;SDS011;48172;53.374;10.722;2022-08-04T11:06:52;7.13;;;3.25;;
62179;SDS011;48172;53.374;10.722;2022-08-04T11:09:20;6.60;;;3.67;;
62179;SDS011;48172;53.374;10.722;2022-08-04T11:11:48;10.23;;;3.30;;
62179;SDS011;48172;53.374;10.722;2022-08-04T11:14:34;7.25;;;3.55;;
62179;SDS011;48172;53.374;10.722;2022-08-04T11:17:06;6.47;;;3.00;;
62179;SDS011;48172;53.374;10.722;2022-08-04T11:25:06;6.13;;;3.47;;
62179;SDS011;48172;53.374;10.722;2022-08-04T11:27:46;7.13;;;4.03;;
62179;SDS011;48172;53.374;10.722;2022-08-04T11:30:21;4.78;;;3.03;;
62179;SDS011;48172;53.374;10.722;2022-08-04T11:33:15;9.35;;;3.20;;
62179;SDS011;48172;53.374;10.722;2022-08-04T11:35:54;5.05;;;3.35;;
62179;SDS011;48172;53.374;10.722;2022-08-04T11:38:31;4.35;;;3.20;;
62179;SDS011;48172;53.374;10.722;2022-08-04T11:41:10;5.93;;;3.70;;
62179;SDS011;48172;53.374;10.722;2022-08-04T11:49:09;4.93;;;4.30;;
62179;SDS011;48172;53.374;10.722;2022-08-04T11:51:41;5.10;;;4.28;;
62179;SDS011;48172;53.374;10.722;2022-08-04T11:54:10;4.57;;;4.03;;
62179;SDS011;48172;53.374;10.722;2022-08-04T11:56:37;6.03;;;4.13;;
62179;SDS011;48172;53.374;10.722;2022-08-04T11:59:05;10.02;;;9.02;;
62179;SDS011;48172;53.374;10.722;2022-08-04T12:07:19;21.80;;;20.20;;
62179;SDS011;48172;53.374;10.722;2022-08-04T12:18:25;47.20;;;18.35;;
62179;SDS011;48172;53.374;10.722;2022-08-04T12:20:59;40.90;;;17.38;;
62179;SDS011;48172;53.374;10.722;2022-08-04T12:23:29;38.08;;;15.82;;
62179;SDS011;48172;53.374;10.722;2022-08-04T12:26:35;38.95;;;14.70;;
62179;SDS011;48172;53.374;10.722;2022-08-04T12:28:58;33.38;;;13.68;;
62179;SDS011;48172;53.374;10.722;2022-08-04T12:31:43;27.33;;;11.48;;
62179;SDS011;48172;53.374;10.722;2022-08-04T12:37:05;24.27;;;9.77;;
62179;SDS011;48172;53.374;10.722;2022-08-04T12:39:38;18.92;;;9.20;;
62179;SDS011;48172;53.374;10.722;2022-08-04T12:42:33;20.45;;;9.43;;
62179;SDS011;48172;53.374;10.722;2022-08-04T12:45:21;21.52;;;8.57;;
62179;SDS011;48172;53.374;10.722;2022-08-04T12:47:49;17.23;;;7.70;;
62179;SDS011;48172;53.374;10.722;2022-08-04T12:50:19;18.08;;;7.25;;
62179;SDS011;48172;53.374;10.722;2022-08-04T12:52:47;17.55;;;6.93;;
62179;SDS011;48172;53.374;10.722;2022-08-04T12:55:32;17.02;;;7.20;;
62179;SDS011;48172;53.374;10.722;2022-08-04T12:58:01;12.80;;;6.10;;
62179;SDS011;48172;53.374;10.722;2022-08-04T13:00:33;11.63;;;8.02;;
62179;SDS011;48172;53.374;10.722;2022-08-04T13:03:10;18.13;;;11.50;;
62179;SDS011;48172;53.374;10.722;2022-08-04T13:05:41;16.95;;;14.63;;
62179;SDS011;48172;53.374;10.722;2022-08-04T13:08:11;18.40;;;16.50;;
62179;SDS011;48172;53.374;10.722;2022-08-04T13:10:41;23.13;;;20.85;;
62179;SDS011;48172;53.374;10.722;2022-08-04T13:13:15;17.42;;;15.90;;
62179;SDS011;48172;53.374;10.722;2022-08-04T13:18:22;19.52;;;17.75;;
62179;SDS011;48172;53.374;10.722;2022-08-04T13:20:55;19.95;;;18.35;;
62179;SDS011;48172;53.374;10.722;2022-08-04T13:23:45;16.83;;;15.30;;
62179;SDS011;48172;53.374;10.722;2022-08-04T13:26:34;20.48;;;18.70;;
62179;SDS011;48172;53.374;10.722;2022-08-04T13:29:18;17.35;;;15.85;;
62179;SDS011;48172;53.374;10.722;2022-08-04T13:32:07;20.80;;;19.00;;
62179;SDS011;48172;53.374;10.722;2022-08-04T13:34:35;20.60;;;19.00;;
62179;SDS011;48172;53.374;10.722;2022-08-04T13:37:14;13.75;;;12.55;;
62179;SDS011;48172;53.374;10.722;2022-08-04T13:42:21;20.05;;;18.45;;
62179;SDS011;48172;53.374;10.722;2022-08-04T13:44:52;17.58;;;16.20;;
62179;SDS011;48172;53.374;10.722;2022-08-04T13:47:26;16.08;;;14.85;;
62179;SDS011;48172;53.374;10.722;2022-08-04T13:50:11;15.15;;;14.02;;
62179;SDS011;48172;53.374;10.722;2022-08-04T13:52:42;11.25;;;10.25;;
62179;SDS011;48172;53.374;10.722;2022-08-04T13:55:23;11.43;;;10.38;;
62179;SDS011;48172;53.374;10.722;2022-08-04T13:57:54;10.40;;;9.45;;
62179;SDS011;48172;53.374;10.722;2022-08-04T14:00:24;10.45;;;9.55;;
62179;SDS011;48172;53.374;10.722;2022-08-04T14:02:59;10.10;;;9.40;;
62179;SDS011;48172;53.374;10.722;2022-08-04T14:11:17;9.30;;;8.55;;
62179;SDS011;48172;53.374;10.722;2022-08-04T14:14:11;9.27;;;8.48;;
62179;SDS011;48172;53.374;10.722;2022-08-04T14:17:14;8.70;;;8.00;;
62179;SDS011;48172;53.374;10.722;2022-08-04T14:24:58;10.50;;;9.60;;
62179;SDS011;48172;53.374;10.722;2022-08-04T14:27:39;12.60;;;11.65;;
62179;SDS011;48172;53.374;10.722;2022-08-04T14:32:56;16.88;;;15.57;;
62179;SDS011;48172;53.374;10.722;2022-08-04T14:35:54;19.27;;;17.83;;
62179;SDS011;48172;53.374;10.722;2022-08-04T14:38:22;22.52;;;20.65;;
62179;SDS011;48172;53.374;10.722;2022-08-04T14:40:48;29.10;;;26.92;;
62179;SDS011;48172;53.374;10.722;2022-08-04T14:43:16;38.63;;;35.83;;
62179;SDS011;48172;53.374;10.722;2022-08-04T14:45:43;39.67;;;36.92;;
62179;SDS011;48172;53.374;10.722;2022-08-04T14:48:20;35.53;;;33.05;;
62179;SDS011;48172;53.374;10.722;2022-08-04T14:50:47;32.30;;;29.83;;
62179;SDS011;48172;53.374;10.722;2022-08-04T14:53:17;30.17;;;27.67;;
62179;SDS011;48172;53.374;10.722;2022-08-04T14:55:46;28.05;;;26.05;;
62179;SDS011;48172;53.374;10.722;2022-08-04T14:58:27;36.05;;;33.35;;
62179;SDS011;48172;53.374;10.722;2022-08-04T15:01:06;44.30;;;40.53;;
62179;SDS011;48172;53.374;10.722;2022-08-04T15:03:40;38.60;;;35.70;;
62179;SDS011;48172;53.374;10.722;2022-08-04T15:06:19;35.13;;;32.53;;
62179;SDS011;48172;53.374;10.722;2022-08-04T15:08:49;33.83;;;31.42;;
62179;SDS011;48172;53.374;10.722;2022-08-04T15:11:16;52.53;;;48.50;;
62179;SDS011;48172;53.374;10.722;2022-08-04T15:13:49;43.55;;;40.22;;
62179;SDS011;48172;53.374;10.722;2022-08-04T15:16:16;35.05;;;32.22;;
62179;SDS011;48172;53.374;10.722;2022-08-04T15:18:44;31.30;;;28.70;;
62179;SDS011;48172;53.374;10.722;2022-08-04T15:21:14;30.58;;;28.20;;
62179;SDS011;48172;53.374;10.722;2022-08-04T15:23:42;28.40;;;26.23;;
62179;SDS011;48172;53.374;10.722;2022-08-04T15:26:10;27.88;;;25.77;;
62179;SDS011;48172;53.374;10.722;2022-08-04T15:28:41;27.00;;;24.85;;
62179;SDS011;48172;53.374;10.722;2022-08-04T15:31:13;26.13;;;24.05;;
62179;SDS011;48172;53.374;10.722;2022-08-04T15:34:02;24.58;;;22.75;;
62179;SDS011;48172;53.374;10.722;2022-08-04T15:37:17;23.70;;;21.98;;
62179;SDS011;48172;53.374;10.722;2022-08-04T15:45:23;21.25;;;19.75;;
62179;SDS011;48172;53.374;10.722;2022-08-04T15:53:20;18.58;;;17.27;;
62179;SDS011;48172;53.374;10.722;2022-08-04T15:55:48;17.90;;;16.65;;
62179;SDS011;48172;53.374;10.722;2022-08-04T15:58:18;18.38;;;17.08;;
62179;SDS011;48172;53.374;10.722;2022-08-04T16:22:02;14.35;;;13.35;;
62179;SDS011;48172;53.374;10.722;2022-08-04T16:27:06;13.90;;;12.95;;
62179;SDS011;48172;53.374;10.722;2022-08-04T16:29:38;12.65;;;11.75;;
62179;SDS011;48172;53.374;10.722;2022-08-04T16:32:08;13.38;;;12.38;;
62179;SDS011;48172;53.374;10.722;2022-08-04T16:45:42;12.18;;;11.27;;
62179;SDS011;48172;53.374;10.722;2022-08-04T16:48:11;11.45;;;10.65;;
62179;SDS011;48172;53.374;10.722;2022-08-04T16:50:45;10.85;;;10.05;;
62179;SDS011;48172;53.374;10.722;2022-08-04T16:53:14;10.73;;;9.88;;
62179;SDS011;48172;53.374;10.722;2022-08-04T16:56:03;9.88;;;9.18;;
62179;SDS011;48172;53.374;10.722;2022-08-04T16:58:34;10.20;;;9.40;;
62179;SDS011;48172;53.374;10.722;2022-08-04T17:01:08;10.13;;;9.35;;
62179;SDS011;48172;53.374;10.722;2022-08-04T17:03:51;9.30;;;8.65;;
62179;SDS011;48172;53.374;10.722;2022-08-04T17:06:23;9.25;;;8.65;;
62179;SDS011;48172;53.374;10.722;2022-08-04T17:09:03;9.40;;;8.60;;
62179;SDS011;48172;53.374;10.722;2022-08-04T17:11:31;9.40;;;8.70;;
62179;SDS011;48172;53.374;10.722;2022-08-04T17:13:57;8.88;;;8.27;;
62179;SDS011;48172;53.374;10.722;2022-08-04T17:16:30;8.75;;;8.10;;
62179;SDS011;48172;53.374;10.722;2022-08-04T17:18:59;8.70;;;8.00;;
62179;SDS011;48172;53.374;10.722;2022-08-04T17:21:27;8.05;;;7.47;;
62179;SDS011;48172;53.374;10.722;2022-08-04T17:23:55;7.68;;;7.18;;
62179;SDS011;48172;53.374;10.722;2022-08-04T17:26:43;7.57;;;6.95;;
62179;SDS011;48172;53.374;10.722;2022-08-04T17:29:19;7.85;;;7.32;;
62179;SDS011;48172;53.374;10.722;2022-08-04T17:31:46;7.93;;;7.32;;
62179;SDS011;48172;53.374;10.722;2022-08-04T17:34:13;7.63;;;7.03;;
62179;SDS011;48172;53.374;10.722;2022-08-04T17:36:45;7.75;;;7.15;;
62179;SDS011;48172;53.374;10.722;2022-08-04T17:39:17;7.38;;;6.78;;
62179;SDS011;48172;53.374;10.722;2022-08-04T17:41:46;6.88;;;6.38;;
62179;SDS011;48172;53.374;10.722;2022-08-04T17:44:15;6.35;;;5.93;;
62179;SDS011;48172;53.374;10.722;2022-08-04T17:46:43;6.88;;;6.38;;
62179;SDS011;48172;53.374;10.722;2022-08-04T17:51:52;7.10;;;6.50;;
62179;SDS011;48172;53.374;10.722;2022-08-04T17:54:36;6.50;;;6.10;;
62179;SDS011;48172;53.374;10.722;2022-08-04T17:59:45;6.57;;;6.07;;
62179;SDS011;48172;53.374;10.722;2022-08-04T18:05:11;5.72;;;5.32;;
62179;SDS011;48172;53.374;10.722;2022-08-04T18:08:12;6.32;;;5.82;;
62179;SDS011;48172;53.374;10.722;2022-08-04T18:11:00;6.10;;;5.60;;
62179;SDS011;48172;53.374;10.722;2022-08-04T18:13:27;5.85;;;5.45;;
62179;SDS011;48172;53.374;10.722;2022-08-04T18:16:01;5.65;;;5.25;;
62179;SDS011;48172;53.374;10.722;2022-08-04T18:18:28;5.47;;;5.07;;
62179;SDS011;48172;53.374;10.722;2022-08-04T18:20:55;5.50;;;5.10;;
62179;SDS011;48172;53.374;10.722;2022-08-04T18:23:25;5.53;;;5.15;;
62179;SDS011;48172;53.374;10.722;2022-08-04T18:25:57;5.47;;;5.07;;
62179;SDS011;48172;53.374;10.722;2022-08-04T18:28:28;5.63;;;5.13;;
62179;SDS011;48172;53.374;10.722;2022-08-04T18:31:15;5.43;;;4.97;;
62179;SDS011;48172;53.374;10.722;2022-08-04T18:33:41;5.53;;;5.03;;
62179;SDS011;48172;53.374;10.722;2022-08-04T18:36:22;4.85;;;4.45;;
62179;SDS011;48172;53.374;10.722;2022-08-04T18:39:03;4.68;;;4.38;;
62179;SDS011;48172;53.374;10.722;2022-08-04T18:41:40;5.25;;;4.85;;
62179;SDS011;48172;53.374;10.722;2022-08-04T18:44:26;4.72;;;4.35;;
62179;SDS011;48172;53.374;10.722;2022-08-04T18:46:54;5.07;;;4.60;;
62179;SDS011;48172;53.374;10.722;2022-08-04T18:49:21;4.50;;;4.20;;
62179;SDS011;48172;53.374;10.722;2022-08-04T18:52:09;4.70;;;4.40;;
62179;SDS011;48172;53.374;10.722;2022-08-04T18:54:40;4.30;;;4.00;;
62179;SDS011;48172;53.374;10.722;2022-08-04T18:57:07;4.38;;;4.07;;
62179;SDS011;48172;53.374;10.722;2022-08-04T18:59:53;4.40;;;4.00;;
62179;SDS011;48172;53.374;10.722;2022-08-04T19:02:21;4.60;;;4.30;;
62179;SDS011;48172;53.374;10.722;2022-08-04T19:04:51;4.57;;;4.22;;
62179;SDS011;48172;53.374;10.722;2022-08-04T19:07:18;5.25;;;3.90;;
62179;SDS011;48172;53.374;10.722;2022-08-04T19:09:55;4.20;;;3.90;;
62179;SDS011;48172;53.374;10.722;2022-08-04T19:12:23;4.60;;;4.07;;
62179;SDS011;48172;53.374;10.722;2022-08-04T19:14:52;4.40;;;4.10;;
62179;SDS011;48172;53.374;10.722;2022-08-04T19:17:24;4.50;;;4.10;;
62179;SDS011;48172;53.374;10.722;2022-08-04T19:20:10;4.22;;;3.92;;
62179;SDS011;48172;53.374;10.722;2022-08-04T19:22:51;4.68;;;4.20;;
62179;SDS011;48172;53.374;10.722;2022-08-04T19:25:39;4.07;;;3.78;;
62179;SDS011;48172;53.374;10.722;2022-08-04T19:28:26;4.40;;;4.10;;
62179;SDS011;48172;53.374;10.722;2022-08-04T19:30:57;3.88;;;3.58;;
62179;SDS011;48172;53.374;10.722;2022-08-04T19:33:23;4.15;;;3.85;;
62179;SDS011;48172;53.374;10.722;2022-08-04T19:36:10;4.00;;;3.70;;
62179;SDS011;48172;53.374;10.722;2022-08-04T19:38:37;3.70;;;3.40;;
62179;SDS011;48172;53.374;10.722;2022-08-04T19:41:04;4.07;;;3.78;;
62179;SDS011;48172;53.374;10.722;2022-08-04T19:43:40;4.10;;;3.17;;
62179;SDS011;48172;53.374;10.722;2022-08-04T19:46:09;3.70;;;3.40;;
62179;SDS011;48172;53.374;10.722;2022-08-04T19:48:37;3.58;;;3.30;;
62179;SDS011;48172;53.374;10.722;2022-08-04T19:51:04;4.65;;;3.78;;
62179;SDS011;48172;53.374;10.722;2022-08-04T19:53:32;3.60;;;3.30;;
62179;SDS011;48172;53.374;10.722;2022-08-04T19:56:08;3.45;;;3.25;;
62179;SDS011;48172;53.374;10.722;2022-08-04T19:58:35;3.40;;;3.10;;
62179;SDS011;48172;53.374;10.722;2022-08-04T20:01:03;3.47;;;3.05;;
62179;SDS011;48172;53.374;10.722;2022-08-04T20:03:50;3.72;;;3.42;;
62179;SDS011;48172;53.374;10.722;2022-08-04T20:06:36;3.50;;;3.20;;
62179;SDS011;48172;53.374;10.722;2022-08-04T20:09:03;3.45;;;3.15;;
62179;SDS011;48172;53.374;10.722;2022-08-04T20:11:49;3.60;;;3.30;;
62179;SDS011;48172;53.374;10.722;2022-08-04T20:14:16;3.88;;;3.58;;
62179;SDS011;48172;53.374;10.722;2022-08-04T20:16:43;3.25;;;3.05;;
62179;SDS011;48172;53.374;10.722;2022-08-04T20:19:11;3.30;;;3.10;;
62179;SDS011;48172;53.374;10.722;2022-08-04T20:21:39;3.53;;;3.22;;
62179;SDS011;48172;53.374;10.722;2022-08-04T20:24:21;3.25;;;3.05;;
62179;SDS011;48172;53.374;10.722;2022-08-04T20:27:09;2.83;;;2.63;;